Terminal Aerodrome Forecast
Issued by NWS

Current Version | Previous Version | Graphics & Text | Print | Product List | Glossary Off
Versions: 1 2 3 4 5 6 7 8 9 10 11 12 13 14 15 16 17 18 19 20

000
FTUS41 KILN 170537
TAFLUK
TAF
KLUK 170537Z 1706/1806 28003KT P6SM -SN OVC018
     FM171500 27003KT P6SM SCT018
     FM171900 25006KT P6SM FEW040 SCT150
     FM180000 24005KT P6SM SCT120 BKN200=

USA.gov is the U.S. government's official web portal to all federal, state and local government web resources and services.